Time;durP1;ratioP1;P1;durP2;ratioP2;P2;SDS_P1;SDS_P2;PMS_P1;PMS_P2;Temp;Humidity;BMP_temperature;BMP_pressure;BME280_temperature;BME280_humidity;BME280_pressure;Samples;Min_cycle;Max_cycle;Signal;HPM_P1;HPM_P2
2024/01/22 00:01:12;;;;;;;4.45;1.77;;;;;;;-148.88;100.00;-17125.47;5053059;28;20027;-88
2024/01/22 00:03:38;;;;;;;6.93;2.50;;;;;;;-148.88;100.00;-17125.47;5051958;28;20029;-86
2024/01/22 00:06:03;;;;;;;4.97;1.80;;;;;;;-148.88;100.00;-17125.47;5053332;28;20094;-86
2024/01/22 00:08:29;;;;;;;4.25;1.98;;;;;;;-148.88;100.00;-17125.47;5052969;28;20017;-87
2024/01/22 00:10:54;;;;;;;9.15;2.40;;;;;;;-148.88;100.00;-17125.47;5053075;28;20025;-86
2024/01/22 00:13:19;;;;;;;5.50;2.30;;;;;;;-148.88;100.00;-17125.47;5051682;28;20116;-87
2024/01/22 00:15:44;;;;;;;7.65;2.53;;;;;;;-148.88;100.00;-17125.47;5052119;28;20115;-86
2024/01/22 00:18:10;;;;;;;4.00;1.90;;;;;;;-148.88;100.00;-17125.47;5053429;28;20021;-86
2024/01/22 00:20:35;;;;;;;8.52;2.53;;;;;;;-148.88;100.00;-17125.47;5053425;28;20060;-87
2024/01/22 00:23:01;;;;;;;6.25;2.05;;;;;;;-148.88;100.00;-17125.47;5053066;28;20025;-88
2024/01/22 00:25:26;;;;;;;5.60;2.67;;;;;;;-148.88;100.00;-17125.47;5053000;28;20100;-88
2024/01/22 00:27:51;;;;;;;9.52;2.80;;;;;;;-148.88;100.00;-17125.47;5053007;28;20100;-85
2024/01/22 00:30:17;;;;;;;5.45;2.33;;;;;;;-148.88;100.00;-17125.47;5053246;28;20025;-87
2024/01/22 00:32:42;;;;;;;5.30;2.20;;;;;;;-148.88;100.00;-17125.47;5053878;28;20432;-88
2024/01/22 00:35:08;;;;;;;4.45;2.50;;;;;;;-148.88;100.00;-17125.47;5054098;28;20464;-86
2024/01/22 00:37:33;;;;;;;4.22;2.28;;;;;;;-148.88;100.00;-17125.47;5053171;28;20025;-86
2024/01/22 00:39:58;;;;;;;7.32;2.40;;;;;;;-148.88;100.00;-17125.47;5052780;28;20060;-88
2024/01/22 00:42:24;;;;;;;6.15;2.20;;;;;;;-148.88;100.00;-17125.47;5052927;28;20032;-87
2024/01/22 00:44:49;;;;;;;7.40;1.98;;;;;;;-148.88;100.00;-17125.47;5053254;28;20111;-87
2024/01/22 00:47:14;;;;;;;5.47;2.40;;;;;;;-148.88;100.00;-17125.47;5055476;28;20017;-87
2024/01/22 00:49:43;;;;;;;7.22;2.78;;;;;;;-148.88;100.00;-17125.47;5056640;28;20147;-87
2024/01/22 00:52:09;;;;;;;5.72;2.67;;;;;;;-148.88;100.00;-17125.47;5056303;28;20067;-87
2024/01/22 00:54:34;;;;;;;8.02;2.35;;;;;;;-148.88;100.00;-17125.47;5056273;28;20111;-86
2024/01/22 00:57:00;;;;;;;6.93;2.33;;;;;;;-148.88;100.00;-17125.47;5056192;28;20063;-88
2024/01/22 00:59:25;;;;;;;6.40;2.05;;;;;;;-148.88;100.00;-17125.47;5056295;28;20029;-86
2024/01/22 01:01:50;;;;;;;7.28;2.50;;;;;;;-148.88;100.00;-17125.47;5056133;28;20021;-87
2024/01/22 01:04:16;;;;;;;5.13;2.25;;;;;;;-148.88;100.00;-17125.47;5056168;28;20017;-88
2024/01/22 01:06:41;;;;;;;6.70;2.03;;;;;;;-148.88;100.00;-17125.47;5055975;28;20467;-86
2024/01/22 01:09:07;;;;;;;7.18;2.17;;;;;;;-148.88;100.00;-17125.47;5055901;28;20509;-86
2024/01/22 01:11:32;;;;;;;5.38;1.90;;;;;;;-148.88;100.00;-17125.47;5055990;28;20024;-87
2024/01/22 01:13:57;;;;;;;6.97;2.05;;;;;;;-148.88;100.00;-17125.47;5056031;28;20107;-87
2024/01/22 01:16:23;;;;;;;4.03;1.80;;;;;;;-148.88;100.00;-17125.47;5058318;28;20029;-87
2024/01/22 01:18:48;;;;;;;5.80;2.10;;;;;;;-148.88;100.00;-17125.47;5056044;28;20036;-87
2024/01/22 01:21:13;;;;;;;3.72;1.58;;;;;;;-148.88;100.00;-17125.47;5055814;28;20120;-88
2024/01/22 01:23:39;;;;;;;3.83;1.65;;;;;;;-148.88;100.00;-17125.47;5055886;28;20107;-89
2024/01/22 01:26:04;;;;;;;4.95;1.60;;;;;;;-148.88;100.00;-17125.47;5056039;28;20029;-87
2024/01/22 01:28:30;;;;;;;3.28;1.60;;;;;;;-148.88;100.00;-17125.47;5055469;28;20028;-88
2024/01/22 01:30:55;;;;;;;4.65;2.08;;;;;;;-148.88;100.00;-17125.47;5055648;28;20466;-87
2024/01/22 01:33:20;;;;;;;8.85;2.05;;;;;;;-148.88;100.00;-17125.47;5055568;28;20025;-87
2024/01/22 01:35:46;;;;;;;5.15;1.55;;;;;;;-148.88;100.00;-17125.47;5054429;28;20460;-88
2024/01/22 01:38:13;;;;;;;2.40;1.15;;;;;;;-148.88;100.00;-17125.47;5054467;28;20112;-87
2024/01/22 01:40:41;;;;;;;5.10;2.10;;;;;;;-148.88;100.00;-17125.47;5055478;28;20078;-87
2024/01/22 01:43:06;;;;;;;5.10;2.00;;;;;;;-148.88;100.00;-17125.47;5055183;28;20043;-87
2024/01/22 01:45:32;;;;;;;4.30;1.60;;;;;;;-148.88;100.00;-17125.47;5055506;28;20477;-87
2024/01/22 01:47:57;;;;;;;4.03;1.60;;;;;;;-148.88;100.00;-17125.47;5055179;28;20037;-87
2024/01/22 01:50:23;;;;;;;4.38;1.75;;;;;;;-148.88;100.00;-17125.47;5055241;28;20372;-86
2024/01/22 01:52:49;;;;;;;4.45;1.40;;;;;;;-148.88;100.00;-17125.47;5055272;28;20040;-84
2024/01/22 01:55:15;;;;;;;5.10;1.63;;;;;;;-148.88;100.00;-17125.47;5054938;28;20047;-87
2024/01/22 01:57:41;;;;;;;6.25;1.50;;;;;;;-148.88;100.00;-17125.47;5054235;28;20029;-87
2024/01/22 02:00:07;;;;;;;4.28;1.30;;;;;;;-148.88;100.00;-17125.47;5055060;28;20104;-86
2024/01/22 02:02:32;;;;;;;3.78;1.50;;;;;;;-148.88;100.00;-17125.47;5054989;28;20104;-86
2024/01/22 02:04:58;;;;;;;3.70;1.50;;;;;;;-148.88;100.00;-17125.47;5054736;28;20021;-87
2024/01/22 02:07:23;;;;;;;3.28;1.48;;;;;;;-148.88;100.00;-17125.47;5054879;28;20017;-86
2024/01/22 02:09:53;;;;;;;8.05;1.38;;;;;;;-148.88;100.00;-17125.47;5054900;28;20111;-86
2024/01/22 02:12:19;;;;;;;5.03;1.50;;;;;;;-148.88;100.00;-17125.47;5054876;28;20021;-86
2024/01/22 02:14:46;;;;;;;2.50;1.15;;;;;;;-148.88;100.00;-17125.47;5054549;28;20035;-86
2024/01/22 02:17:12;;;;;;;5.78;1.42;;;;;;;-148.88;100.00;-17125.47;5054504;28;20052;-85
2024/01/22 02:19:37;;;;;;;3.80;1.50;;;;;;;-148.88;100.00;-17125.47;5054526;28;20029;-86
2024/01/22 02:22:03;;;;;;;4.60;1.23;;;;;;;-148.88;100.00;-17125.47;5054378;28;20017;-85
2024/01/22 02:24:28;;;;;;;1.92;1.10;;;;;;;-148.88;100.00;-17125.47;5054395;28;20387;-87
2024/01/22 02:26:54;;;;;;;2.88;0.90;;;;;;;-148.88;100.00;-17125.47;5054447;28;20028;-86
2024/01/22 02:29:19;;;;;;;5.90;1.88;;;;;;;-148.88;100.00;-17125.47;5054619;28;20448;-87
2024/01/22 02:31:48;;;;;;;1.83;1.13;;;;;;;-148.88;100.00;-17125.47;5054687;28;20032;-86
2024/01/22 02:34:13;;;;;;;2.90;1.20;;;;;;;-148.88;100.00;-17125.47;5054501;28;20079;-88
2024/01/22 02:36:39;;;;;;;2.78;1.00;;;;;;;-148.88;100.00;-17125.47;5054598;28;20029;-86
2024/01/22 02:39:04;;;;;;;3.20;1.00;;;;;;;-148.88;100.00;-17125.47;5054347;28;20021;-87
2024/01/22 02:41:30;;;;;;;3.78;1.40;;;;;;;-148.88;100.00;-17125.47;5054581;28;20025;-87
2024/01/22 02:43:55;;;;;;;4.03;1.30;;;;;;;-148.88;100.00;-17125.47;5054494;28;20052;-88
2024/01/22 02:46:20;;;;;;;3.80;1.75;;;;;;;-148.88;100.00;-17125.47;5054147;28;20024;-88
2024/01/22 02:48:46;;;;;;;3.20;1.17;;;;;;;-148.88;100.00;-17125.47;5054355;28;20559;-87
2024/01/22 02:51:11;;;;;;;3.15;1.30;;;;;;;-148.88;100.00;-17125.47;5054576;28;20037;-87
2024/01/22 02:53:38;;;;;;;2.05;1.10;;;;;;;-148.88;100.00;-17125.47;5054293;28;20024;-86
2024/01/22 02:56:03;;;;;;;2.38;0.93;;;;;;;-148.88;100.00;-17125.47;5054024;28;20525;-86
2024/01/22 02:58:31;;;;;;;3.80;1.20;;;;;;;-148.88;100.00;-17125.47;5054112;28;20020;-85
2024/01/22 03:00:56;;;;;;;2.45;1.30;;;;;;;-148.88;100.00;-17125.47;5053771;28;20090;-86
2024/01/22 03:03:21;;;;;;;3.95;1.25;;;;;;;-148.88;100.00;-17125.47;5053837;28;20479;-86
2024/01/22 03:05:47;;;;;;;3.97;1.10;;;;;;;-148.88;100.00;-17125.47;5053709;28;20569;-86
2024/01/22 03:08:12;;;;;;;4.43;1.30;;;;;;;-148.88;100.00;-17125.47;5053788;28;20471;-86
2024/01/22 03:10:38;;;;;;;2.65;1.70;;;;;;;-148.88;100.00;-17125.47;5052848;28;20025;-87
2024/01/22 03:13:03;;;;;;;4.30;1.10;;;;;;;-148.88;100.00;-17125.47;5053583;28;20043;-86
2024/01/22 03:15:29;;;;;;;2.47;1.00;;;;;;;-148.88;100.00;-17125.47;5052439;28;20108;-86
2024/01/22 03:17:54;;;;;;;2.60;0.90;;;;;;;-148.88;100.00;-17125.47;5053873;28;20029;-87
2024/01/22 03:20:19;;;;;;;2.60;1.00;;;;;;;-148.88;100.00;-17125.47;5053632;28;20048;-86
2024/01/22 03:22:45;;;;;;;2.80;0.95;;;;;;;-148.88;100.00;-17125.47;5053493;28;20032;-85
2024/01/22 03:25:14;;;;;;;2.17;1.23;;;;;;;-148.88;100.00;-17125.47;5052239;28;20028;-87
2024/01/22 03:27:39;;;;;;;3.20;1.00;;;;;;;-148.88;100.00;-17125.47;5053800;28;20013;-86
2024/01/22 03:30:05;;;;;;;2.30;0.70;;;;;;;-148.88;100.00;-17125.47;5053465;28;20028;-86
2024/01/22 03:32:30;;;;;;;2.50;1.00;;;;;;;-148.88;100.00;-17125.47;5053268;28;20610;-85
2024/01/22 03:34:55;;;;;;;2.88;0.98;;;;;;;-148.88;100.00;-17125.47;5053586;28;20025;-86
2024/01/22 03:37:21;;;;;;;3.90;1.00;;;;;;;-148.88;100.00;-17125.47;5053417;28;20063;-87
2024/01/22 03:39:46;;;;;;;1.77;0.85;;;;;;;-148.88;100.00;-17125.47;5053177;28;20029;-86
2024/01/22 03:42:12;;;;;;;2.30;1.05;;;;;;;-148.88;100.00;-17125.47;5053252;28;20399;-85
2024/01/22 03:44:38;;;;;;;5.25;1.00;;;;;;;-148.88;100.00;-17125.47;5053045;28;20028;-86
2024/01/22 03:47:03;;;;;;;2.53;0.88;;;;;;;-148.88;100.00;-17125.47;5052291;28;20017;-86
2024/01/22 03:49:28;;;;;;;2.63;1.02;;;;;;;-148.88;100.00;-17125.47;5053283;28;20513;-87
2024/01/22 03:51:54;;;;;;;2.08;0.80;;;;;;;-148.88;100.00;-17125.47;5053664;28;20078;-87
2024/01/22 03:54:19;;;;;;;2.28;1.08;;;;;;;-148.88;100.00;-17125.47;5053059;28;20071;-85
2024/01/22 03:56:44;;;;;;;4.65;0.70;;;;;;;-148.88;100.00;-17125.47;5053401;28;20071;-87
2024/01/22 03:59:11;;;;;;;1.10;0.70;;;;;;;-148.88;100.00;-17125.47;5053295;28;20049;-87
2024/01/22 04:01:36;;;;;;;2.35;1.05;;;;;;;-148.88;100.00;-17125.47;5053040;28;20025;-86
2024/01/22 04:04:02;;;;;;;2.75;0.73;;;;;;;-148.88;100.00;-17125.47;5052982;28;20029;-85
2024/01/22 04:06:28;;;;;;;2.25;1.25;;;;;;;-148.88;100.00;-17125.47;5052994;28;20181;-87
2024/01/22 04:08:53;;;;;;;2.03;0.80;;;;;;;-148.88;100.00;-17125.47;5052925;28;20043;-86
2024/01/22 04:11:18;;;;;;;6.20;1.00;;;;;;;-148.88;100.00;-17125.47;5053167;28;20053;-85
2024/01/22 04:13:44;;;;;;;2.35;1.45;;;;;;;-148.88;100.00;-17125.47;5051733;28;20488;-86
2024/01/22 04:16:13;;;;;;;3.22;0.95;;;;;;;-148.88;100.00;-17125.47;5052787;28;20459;-87
2024/01/22 04:18:41;;;;;;;1.55;0.70;;;;;;;-148.88;100.00;-17125.47;5052934;28;20032;-86
2024/01/22 04:21:06;;;;;;;1.50;0.70;;;;;;;-148.88;100.00;-17125.47;5054268;28;20058;-87
2024/01/22 04:23:34;;;;;;;3.13;0.85;;;;;;;-148.88;100.00;-17125.47;5057684;28;20096;-87
2024/01/22 04:26:00;;;;;;;3.70;1.80;;;;;;;-148.88;100.00;-17125.47;5055445;28;20017;-88
2024/01/22 04:28:25;;;;;;;1.58;0.60;;;;;;;-148.88;100.00;-17125.47;5055608;28;20043;-86
2024/01/22 04:30:50;;;;;;;2.00;0.90;;;;;;;-148.88;100.00;-17125.47;5057001;28;20032;-88
2024/01/22 04:33:16;;;;;;;3.75;1.00;;;;;;;-148.88;100.00;-17125.47;5056632;28;20021;-87
2024/01/22 04:35:41;;;;;;;3.40;0.93;;;;;;;-148.88;100.00;-17125.47;5057076;28;20021;-87
2024/01/22 04:38:07;;;;;;;5.60;1.30;;;;;;;-148.88;100.00;-17125.47;5056610;28;20043;-85
2024/01/22 04:40:32;;;;;;;5.45;1.83;;;;;;;-148.88;100.00;-17125.47;5056609;28;20021;-87
2024/01/22 04:42:57;;;;;;;7.32;1.40;;;;;;;-148.88;100.00;-17125.47;5056409;28;20373;-87
2024/01/22 04:45:23;;;;;;;2.85;1.65;;;;;;;-148.88;100.00;-17125.47;5056506;28;20035;-86
2024/01/22 04:47:48;;;;;;;2.28;1.00;;;;;;;-148.88;100.00;-17125.47;5056578;28;20035;-86
2024/01/22 04:50:13;;;;;;;2.13;0.90;;;;;;;-148.88;100.00;-17125.47;5056372;28;20053;-87
2024/01/22 04:52:39;;;;;;;2.28;1.05;;;;;;;-148.88;100.00;-17125.47;5056231;28;20029;-85
2024/01/22 04:55:04;;;;;;;2.22;1.10;;;;;;;-148.88;100.00;-17125.47;5056562;28;20388;-87
2024/01/22 04:57:29;;;;;;;3.75;1.70;;;;;;;-148.88;100.00;-17125.47;5056447;28;20025;-86
2024/01/22 04:59:55;;;;;;;1.70;0.98;;;;;;;-148.88;100.00;-17125.47;5056236;28;20029;-85
2024/01/22 05:02:27;;;;;;;2.83;1.10;;;;;;;-148.88;100.00;-17125.47;5054960;28;20035;-85
2024/01/22 05:05:00;;;;;;;3.70;1.15;;;;;;;-148.88;100.00;-17125.47;5056038;28;20032;-84
2024/01/22 05:07:25;;;;;;;2.50;1.10;;;;;;;-148.88;100.00;-17125.47;5056302;28;20028;-86
2024/01/22 05:10:04;;;;;;;4.40;1.10;;;;;;;-148.88;100.00;-17125.47;5055896;28;20029;-87
2024/01/22 05:12:30;;;;;;;1.65;0.88;;;;;;;-148.88;100.00;-17125.47;5055845;28;20483;-87
2024/01/22 05:14:55;;;;;;;3.20;1.27;;;;;;;-148.88;100.00;-17125.47;5055714;28;20039;-87
2024/01/22 05:17:21;;;;;;;3.50;1.15;;;;;;;-148.88;100.00;-17125.47;5054365;28;20048;-86
2024/01/22 05:19:47;;;;;;;2.15;1.05;;;;;;;-148.88;100.00;-17125.47;5055751;28;20395;-89
2024/01/22 05:22:13;;;;;;;3.17;1.10;;;;;;;-148.88;100.00;-17125.47;5056018;28;20026;-86
2024/01/22 05:24:38;;;;;;;2.80;1.10;;;;;;;-148.88;100.00;-17125.47;5055917;28;20025;-84
2024/01/22 05:27:04;;;;;;;2.53;1.33;;;;;;;-148.88;100.00;-17125.47;5055904;28;20468;-86
2024/01/22 05:29:29;;;;;;;3.17;1.00;;;;;;;-148.88;100.00;-17125.47;5055864;28;20433;-84
2024/01/22 05:31:54;;;;;;;4.25;1.15;;;;;;;-148.88;100.00;-17125.47;5055731;28;20024;-85
2024/01/22 05:34:20;;;;;;;2.33;1.00;;;;;;;-148.88;100.00;-17125.47;5056042;28;20021;-86
2024/01/22 05:36:46;;;;;;;3.55;1.02;;;;;;;-148.88;100.00;-17125.47;5058498;28;20079;-84
2024/01/22 05:39:12;;;;;;;3.90;1.20;;;;;;;-148.88;100.00;-17125.47;5058188;28;20048;-85
2024/01/22 05:41:37;;;;;;;3.40;1.33;;;;;;;-148.88;100.00;-17125.47;5058122;28;20059;-85
2024/01/22 05:44:03;;;;;;;2.33;1.02;;;;;;;-148.88;100.00;-17125.47;5056904;28;20024;-87
2024/01/22 05:46:28;;;;;;;1.95;0.90;;;;;;;-148.88;100.00;-17125.47;5055680;28;20395;-85
2024/01/22 05:48:53;;;;;;;3.42;0.80;;;;;;;-148.88;100.00;-17125.47;5055632;28;20518;-85
2024/01/22 05:51:19;;;;;;;1.95;1.00;;;;;;;-148.88;100.00;-17125.47;5055499;28;20023;-85
2024/01/22 05:53:46;;;;;;;3.13;1.13;;;;;;;-148.88;100.00;-17125.47;5055051;28;20480;-87
2024/01/22 05:56:25;;;;;;;1.52;0.80;;;;;;;-148.88;100.00;-17125.47;5055093;28;20033;-87
2024/01/22 05:58:51;;;;;;;2.30;1.02;;;;;;;-148.88;100.00;-17125.47;5055294;28;20025;-85
2024/01/22 06:01:21;;;;;;;3.72;0.80;;;;;;;-148.88;100.00;-17125.47;5056107;28;20024;-85
2024/01/22 06:03:46;;;;;;;2.22;1.10;;;;;;;-148.88;100.00;-17125.47;5056079;28;20387;-85
2024/01/22 06:06:12;;;;;;;2.45;0.60;;;;;;;-148.88;100.00;-17125.47;5055297;28;20017;-86
2024/01/22 06:08:37;;;;;;;1.42;0.70;;;;;;;-148.88;100.00;-17125.47;5054977;28;20051;-85
2024/01/22 06:11:04;;;;;;;5.63;0.93;;;;;;;-148.88;100.00;-17125.47;5054826;28;20021;-87
2024/01/22 06:13:31;;;;;;;1.75;0.70;;;;;;;-148.88;100.00;-17125.47;5054665;28;20032;-84
2024/01/22 06:16:10;;;;;;;3.45;0.70;;;;;;;-148.88;100.00;-17125.47;5055079;28;20037;-85
2024/01/22 06:18:37;;;;;;;1.67;0.80;;;;;;;-148.88;100.00;-17125.47;5053560;28;20031;-86
2024/01/22 06:21:06;;;;;;;3.28;1.15;;;;;;;-148.88;100.00;-17125.47;5055149;28;20016;-86
2024/01/22 06:23:32;;;;;;;1.10;0.60;;;;;;;-148.88;100.00;-17125.47;5054540;28;20028;-86
2024/01/22 06:25:58;;;;;;;0.93;0.52;;;;;;;-148.88;100.00;-17125.47;5054794;28;20021;-86
2024/01/22 06:28:28;;;;;;;3.53;1.02;;;;;;;-148.88;100.00;-17125.47;5054774;28;20472;-86
2024/01/22 06:30:53;;;;;;;0.60;0.50;;;;;;;-148.88;100.00;-17125.47;5055249;28;20075;-86
2024/01/22 06:33:20;;;;;;;0.60;0.40;;;;;;;-148.88;100.00;-17125.47;5054446;28;20029;-86
2024/01/22 06:35:46;;;;;;;1.13;0.65;;;;;;;-148.88;100.00;-17125.47;5054421;28;20033;-86
2024/01/22 06:38:12;;;;;;;2.20;0.50;;;;;;;-148.88;100.00;-17125.47;5055275;28;20510;-87
2024/01/22 06:40:37;;;;;;;3.55;0.70;;;;;;;-148.88;100.00;-17125.47;5054454;28;20032;-87
2024/01/22 06:43:03;;;;;;;1.63;0.90;;;;;;;-148.88;100.00;-17125.47;5054173;28;20029;-87
2024/01/22 06:45:29;;;;;;;1.50;0.60;;;;;;;-148.88;100.00;-17125.47;5054053;28;20033;-86
2024/01/22 06:47:54;;;;;;;0.95;0.40;;;;;;;-148.88;100.00;-17125.47;5054694;28;20032;-86
2024/01/22 06:50:20;;;;;;;1.13;0.40;;;;;;;-148.88;100.00;-17125.47;5053990;28;20029;-86
2024/01/22 06:52:46;;;;;;;1.40;0.57;;;;;;;-148.88;100.00;-17125.47;5032440;28;20060;-87
2024/01/22 06:55:12;;;;;;;2.85;0.60;;;;;;;-148.88;100.00;-17125.47;5031737;28;20060;-89
2024/01/22 06:57:37;;;;;;;1.67;0.60;;;;;;;-148.88;100.00;-17125.47;5032212;28;20025;-86
2024/01/22 07:00:09;;;;;;;0.88;0.45;;;;;;;-148.88;100.00;-17125.47;5032281;28;20040;-88
2024/01/22 07:02:35;;;;;;;1.05;0.52;;;;;;;-148.88;100.00;-17125.47;5030254;28;20025;-85
2024/01/22 07:05:01;;;;;;;2.47;0.52;;;;;;;-148.88;100.00;-17125.47;5031818;28;20032;-88
2024/01/22 07:07:26;;;;;;;1.65;0.90;;;;;;;-148.88;100.00;-17125.47;5032047;28;20049;-85
2024/01/22 07:09:52;;;;;;;0.60;0.38;;;;;;;-148.88;100.00;-17125.47;5031717;28;20022;-88
2024/01/22 07:12:24;;;;;;;1.52;0.70;;;;;;;-148.88;100.00;-17125.47;5031651;28;20108;-89
2024/01/22 07:14:49;;;;;;;1.15;0.57;;;;;;;-148.88;100.00;-17125.47;5049756;28;20029;-87
2024/01/22 07:17:24;;;;;;;3.58;0.80;;;;;;;-148.88;100.00;-17125.47;5051805;28;20494;-90
2024/01/22 07:19:49;;;;;;;2.60;0.90;;;;;;;-148.88;100.00;-17125.47;5053818;28;20032;-90
2024/01/22 07:22:15;;;;;;;1.33;0.82;;;;;;;-148.88;100.00;-17125.47;5050998;28;20082;-90
2024/01/22 07:24:40;;;;;;;1.00;0.80;;;;;;;-148.88;100.00;-17125.47;5050150;28;20066;-89
2024/01/22 07:27:07;;;;;;;0.98;0.50;;;;;;;-148.88;100.00;-17125.47;5051972;28;20028;-90
2024/01/22 07:29:32;;;;;;;1.88;0.80;;;;;;;-148.88;100.00;-17125.47;5051139;28;20040;-90
2024/01/22 07:31:57;;;;;;;1.58;0.85;;;;;;;-148.88;100.00;-17125.47;5048163;28;20028;-89
2024/01/22 07:34:23;;;;;;;1.48;0.73;;;;;;;-148.88;100.00;-17125.47;5051941;28;20025;-88
2024/01/22 07:36:49;;;;;;;2.15;0.82;;;;;;;-148.88;100.00;-17125.47;5053570;28;20033;-89
2024/01/22 07:39:15;;;;;;;0.80;0.55;;;;;;;-148.88;100.00;-17125.47;5037218;28;20021;-88
2024/01/22 07:41:40;;;;;;;1.35;0.52;;;;;;;-148.88;100.00;-17125.47;5033835;28;20499;-90
2024/01/22 07:44:08;;;;;;;1.45;0.90;;;;;;;-148.88;100.00;-17125.47;5034454;28;20369;-90
2024/01/22 07:46:34;;;;;;;2.03;0.88;;;;;;;-148.88;100.00;-17125.47;5034475;28;20100;-91
2024/01/22 07:48:59;;;;;;;3.35;0.60;;;;;;;-148.88;100.00;-17125.47;5032402;28;20041;-89
2024/01/22 07:51:25;;;;;;;2.22;1.00;;;;;;;-148.88;100.00;-17125.47;5033403;28;20396;-89
2024/01/22 07:53:50;;;;;;;1.45;0.70;;;;;;;-148.88;100.00;-17125.47;5033617;28;20030;-91
2024/01/22 07:56:16;;;;;;;2.88;0.98;;;;;;;-148.88;100.00;-17125.47;5035170;28;20029;-89
2024/01/22 07:58:42;;;;;;;1.65;1.00;;;;;;;-148.88;100.00;-17125.47;5037440;28;20108;-91
2024/01/22 08:01:08;;;;;;;2.80;1.00;;;;;;;-148.88;100.00;-17125.47;5037441;28;20021;-90
2024/01/22 08:03:33;;;;;;;2.28;0.90;;;;;;;-148.88;100.00;-17125.47;5037198;28;20022;-90
2024/01/22 08:05:59;;;;;;;2.15;1.30;;;;;;;-148.88;100.00;-17125.47;5037193;28;20033;-90
2024/01/22 08:08:25;;;;;;;2.80;1.20;;;;;;;-148.88;100.00;-17125.47;5037193;28;20075;-91
2024/01/22 08:10:51;;;;;;;2.15;0.90;;;;;;;-148.88;100.00;-17125.47;5037376;28;20479;-89
2024/01/22 08:13:17;;;;;;;2.28;1.13;;;;;;;-148.88;100.00;-17125.47;5036083;28;20491;-90
2024/01/22 08:15:43;;;;;;;1.27;0.73;;;;;;;-148.88;100.00;-17125.47;5037234;28;20064;-92
2024/01/22 08:18:09;;;;;;;1.90;0.80;;;;;;;-148.88;100.00;-17125.47;5037282;28;20021;-89
2024/01/22 08:20:34;;;;;;;1.92;1.20;;;;;;;-148.88;100.00;-17125.47;5037528;28;20116;-89
2024/01/22 08:23:00;;;;;;;1.30;0.63;;;;;;;-148.88;100.00;-17125.47;5036638;28;20105;-90
2024/01/22 08:25:28;;;;;;;1.13;0.80;;;;;;;-148.88;100.00;-17125.47;5036892;28;20021;-91
2024/01/22 08:27:55;;;;;;;1.52;0.95;;;;;;;-148.88;100.00;-17125.47;5037261;28;20025;-91
2024/01/22 08:30:21;;;;;;;1.10;0.63;;;;;;;-148.88;100.00;-17125.47;5036910;28;20026;-89
2024/01/22 08:32:47;;;;;;;1.60;1.10;;;;;;;-148.88;100.00;-17125.47;5037115;28;20026;-90
2024/01/22 08:35:13;;;;;;;1.35;0.68;;;;;;;-148.88;100.00;-17125.47;5036838;28;20032;-89
2024/01/22 08:37:39;;;;;;;1.70;0.60;;;;;;;-148.88;100.00;-17125.47;5036509;28;20392;-87
2024/01/22 08:40:06;;;;;;;2.40;1.00;;;;;;;-148.88;100.00;-17125.47;5036670;28;20391;-89
2024/01/22 08:42:34;;;;;;;5.00;0.88;;;;;;;-148.88;100.00;-17125.47;5036432;28;20112;-90
2024/01/22 08:45:00;;;;;;;1.75;0.93;;;;;;;-148.88;100.00;-17125.47;5036700;28;20084;-90
2024/01/22 08:47:25;;;;;;;2.30;0.73;;;;;;;-148.88;100.00;-17125.47;5036601;28;20017;-91
2024/01/22 08:49:50;;;;;;;2.55;1.30;;;;;;;-148.88;100.00;-17125.47;5036809;28;20026;-88
2024/01/22 08:52:16;;;;;;;1.73;0.90;;;;;;;-148.88;100.00;-17125.47;5036342;28;20495;-89
2024/01/22 08:54:41;;;;;;;1.50;0.90;;;;;;;-148.88;100.00;-17125.47;5036915;28;20028;-89
2024/01/22 08:57:07;;;;;;;3.08;1.70;;;;;;;-148.88;100.00;-17125.47;5037339;28;20101;-89
2024/01/22 08:59:32;;;;;;;2.75;1.58;;;;;;;-148.88;100.00;-17125.47;5035082;28;20026;-88
2024/01/22 09:01:58;;;;;;;2.20;1.40;;;;;;;-148.88;100.00;-17125.47;5036643;28;20024;-89
2024/01/22 09:04:23;;;;;;;3.38;2.25;;;;;;;-148.88;100.00;-17125.47;5036082;28;20021;-86
2024/01/22 09:06:48;;;;;;;2.67;1.83;;;;;;;-148.88;100.00;-17125.47;5036017;28;20033;-88
2024/01/22 09:09:14;;;;;;;2.17;1.50;;;;;;;-148.88;100.00;-17125.47;5036130;28;20022;-88
2024/01/22 09:11:39;;;;;;;2.75;1.88;;;;;;;-148.88;100.00;-17125.47;5036494;28;20029;-86
2024/01/22 09:14:05;;;;;;;3.85;1.75;;;;;;;-148.88;100.00;-17125.47;5036784;28;20026;-89
2024/01/22 09:16:30;;;;;;;3.80;2.50;;;;;;;-148.88;100.00;-17125.47;5036574;28;20033;-88
2024/01/22 09:18:57;;;;;;;3.33;2.10;;;;;;;-148.88;100.00;-17125.47;5036446;28;20031;-89
2024/01/22 09:21:23;;;;;;;2.58;1.55;;;;;;;-148.88;100.00;-17125.47;5036242;28;20391;-89
2024/01/22 09:23:48;;;;;;;2.35;1.45;;;;;;;-148.88;100.00;-17125.47;5036244;28;20468;-89
2024/01/22 09:26:13;;;;;;;3.65;2.42;;;;;;;-148.88;100.00;-17125.47;5034592;28;20021;-89
2024/01/22 09:28:39;;;;;;;3.92;2.15;;;;;;;-148.88;100.00;-17125.47;5036231;28;20361;-88
2024/01/22 09:31:05;;;;;;;3.00;1.30;;;;;;;-148.88;100.00;-17125.47;5035967;28;20057;-93
2024/01/22 09:33:30;;;;;;;2.95;2.00;;;;;;;-148.88;100.00;-17125.47;5035755;28;20049;-91
2024/01/22 09:35:56;;;;;;;2.83;1.40;;;;;;;-148.88;100.00;-17125.47;5035789;28;20122;-89
2024/01/22 09:38:22;;;;;;;2.00;1.20;;;;;;;-148.88;100.00;-17125.47;5035446;28;20029;-86
2024/01/22 09:40:50;;;;;;;3.33;1.20;;;;;;;-148.88;100.00;-17125.47;5034571;28;20488;-88
2024/01/22 09:43:16;;;;;;;2.95;2.10;;;;;;;-148.88;100.00;-17125.47;5034071;28;20029;-89
2024/01/22 09:45:41;;;;;;;2.47;1.60;;;;;;;-148.88;100.00;-17125.47;5035443;28;20028;-88
2024/01/22 09:48:08;;;;;;;5.25;2.35;;;;;;;-148.88;100.00;-17125.47;5035434;28;20018;-89
2024/01/22 09:50:34;;;;;;;6.75;2.22;;;;;;;-148.88;100.00;-17125.47;5035393;28;20028;-90
2024/01/22 09:53:04;;;;;;;5.90;2.15;;;;;;;-148.88;100.00;-17125.47;5035141;28;20025;-90
2024/01/22 09:55:30;;;;;;;3.45;1.33;;;;;;;-148.88;100.00;-17125.47;5035233;28;20033;-91
2024/01/22 09:57:59;;;;;;;4.72;1.77;;;;;;;-148.88;100.00;-17125.47;5035132;28;20084;-91
2024/01/22 10:00:26;;;;;;;3.92;1.30;;;;;;;-148.88;100.00;-17125.47;5035370;28;20022;-89
2024/01/22 10:02:56;;;;;;;2.67;1.45;;;;;;;-148.88;100.00;-17125.47;5034299;28;20029;-88
2024/01/22 10:05:22;;;;;;;3.40;1.42;;;;;;;-148.88;100.00;-17125.47;5033880;28;20017;-89
2024/01/22 10:07:48;;;;;;;6.30;1.88;;;;;;;-148.88;100.00;-17125.47;5033980;28;20022;-91
2024/01/22 10:10:14;;;;;;;4.18;1.85;;;;;;;-148.88;100.00;-17125.47;5034938;28;20025;-90
2024/01/22 10:12:59;;;;;;;3.53;1.25;;;;;;;-148.88;100.00;-17125.47;5034515;28;20033;-90
2024/01/22 10:15:26;;;;;;;5.45;2.08;;;;;;;-148.88;100.00;-17125.47;5035245;28;20395;-90
2024/01/22 10:17:52;;;;;;;3.13;1.13;;;;;;;-148.88;100.00;-17125.47;5034894;28;20392;-90
2024/01/22 10:20:22;;;;;;;6.22;2.22;;;;;;;-148.88;100.00;-17125.47;5034332;28;20506;-88
2024/01/22 10:22:49;;;;;;;4.82;2.20;;;;;;;-148.88;100.00;-17125.47;5035031;28;20094;-89
2024/01/22 10:25:17;;;;;;;3.67;2.13;;;;;;;-148.88;100.00;-17125.47;5034810;28;20028;-90
2024/01/22 10:27:42;;;;;;;3.70;2.03;;;;;;;-148.88;100.00;-17125.47;5034639;28;20396;-89
2024/01/22 10:30:12;;;;;;;4.05;2.03;;;;;;;-148.88;100.00;-17125.47;5034679;28;20025;-89
2024/01/22 10:32:38;;;;;;;6.82;1.52;;;;;;;-148.88;100.00;-17125.47;5033755;28;20028;-90
2024/01/22 10:35:03;;;;;;;3.45;2.08;;;;;;;-148.88;100.00;-17125.47;5034850;28;20022;-89
2024/01/22 10:37:29;;;;;;;7.60;2.10;;;;;;;-148.88;100.00;-17125.47;5034397;28;20538;-90
2024/01/22 10:40:03;;;;;;;4.20;2.33;;;;;;;-148.88;100.00;-17125.47;5033110;28;20029;-90
2024/01/22 10:42:28;;;;;;;4.40;1.70;;;;;;;-148.88;100.00;-17125.47;5034463;28;20480;-89
2024/01/22 10:44:56;;;;;;;3.85;1.48;;;;;;;-148.88;100.00;-17125.47;5034069;28;20078;-90
2024/01/22 10:47:22;;;;;;;5.18;2.33;;;;;;;-148.88;100.00;-17125.47;5034258;28;20021;-89
2024/01/22 10:49:47;;;;;;;5.70;3.00;;;;;;;-148.88;100.00;-17125.47;5034500;28;20028;-88
2024/01/22 10:52:13;;;;;;;6.43;1.50;;;;;;;-148.88;100.00;-17125.47;5034202;28;20017;-89
2024/01/22 10:54:39;;;;;;;4.20;1.63;;;;;;;-148.88;100.00;-17125.47;5032814;28;20021;-90
2024/01/22 10:57:41;;;;;;;3.50;2.30;;;;;;;-148.88;100.00;-17125.47;5034076;28;20026;-89